Time;durP1;ratioP1;P1;durP2;ratioP2;P2;SDS_P1;SDS_P2;PMS_P1;PMS_P2;Temp;Humidity;BMP_temperature;BMP_pressure;BME280_temperature;BME280_humidity;BME280_pressure;Samples;Min_cycle;Max_cycle;Signal;HPM_P1;HPM_P2
2023/03/18 00:02:02;;;;;;;9.43;3.23;;;13.10;1.00;;;;;;5016545;28;20543;-85
2023/03/18 00:04:29;;;;;;;4.80;2.27;;;13.20;1.00;;;;;;5018628;28;20460;-83
2023/03/18 00:06:56;;;;;;;5.60;2.33;;;13.20;1.00;;;;;;5017415;28;20484;-82
2023/03/18 00:09:23;;;;;;;5.90;2.17;;;13.20;99.90;;;;;;5016971;28;20496;-83
2023/03/18 00:11:50;;;;;;;5.07;2.30;;;13.20;1.00;;;;;;5016580;28;20460;-81
2023/03/18 00:14:18;;;;;;;6.50;2.60;;;13.20;99.90;;;;;;5012960;28;20459;-83
2023/03/18 00:16:47;;;;;;;8.97;2.13;;;13.00;1.00;;;;;;5014073;28;20447;-83
2023/03/18 00:19:14;;;;;;;3.77;1.80;;;13.00;1.00;;;;;;5022164;28;20477;-83
2023/03/18 00:21:41;;;;;;;4.43;2.07;;;13.00;1.00;;;;;;5009771;28;20466;-83
2023/03/18 00:24:08;;;;;;;5.33;2.30;;;12.90;1.00;;;;;;5022837;28;20466;-86
2023/03/18 00:26:35;;;;;;;6.73;2.10;;;12.90;30.90;;;;;;5026411;28;20481;-84
2023/03/18 00:29:02;;;;;;;3.33;1.80;;;12.90;99.90;;;;;;5025707;28;20554;-84
2023/03/18 00:31:29;;;;;;;5.90;2.10;;;13.00;1.00;;;;;;5025545;28;20831;-82
2023/03/18 00:33:57;;;;;;;4.23;1.60;;;12.90;1.00;;;;;;5025730;28;20449;-83
2023/03/18 00:36:25;;;;;;;3.70;1.67;;;13.00;1.00;;;;;;5025871;28;20437;-85
2023/03/18 00:38:56;;;;;;;5.50;1.97;;;13.00;1.00;;;;;;5016812;28;20467;-84
2023/03/18 00:41:24;;;;;;;5.90;2.43;;;13.00;1.00;;;;;;5018580;28;20450;-84
2023/03/18 00:43:52;;;;;;;3.83;1.77;;;13.00;1.00;;;;;;5024654;28;20458;-85
2023/03/18 00:46:22;;;;;;;4.33;2.10;;;12.90;1.00;;;;;;5023721;28;20457;-85
2023/03/18 00:48:49;;;;;;;5.33;2.00;;;12.90;99.90;;;;;;5024031;28;20506;-83
2023/03/18 00:51:19;;;;;;;4.60;1.93;;;12.90;99.90;;;;;;5021295;28;20496;-83
2023/03/18 00:53:47;;;;;;;5.43;2.20;;;12.90;5.10;;;;;;5021935;28;20457;-83
2023/03/18 00:56:16;;;;;;;3.40;1.97;;;12.90;29.20;;;;;;5021352;28;20462;-84
2023/03/18 00:58:44;;;;;;;3.90;2.10;;;12.80;99.90;;;;;;5021745;28;20582;-85
2023/03/18 01:01:12;;;;;;;9.03;3.20;;;12.90;1.00;;;;;;5022440;28;20486;-82
2023/03/18 01:03:41;;;;;;;4.33;2.63;;;12.80;99.90;;;;;;5021946;28;20537;-83
2023/03/18 01:06:08;;;;;;;8.20;3.23;;;12.70;1.00;;;;;;5023482;28;20460;-83
2023/03/18 01:08:37;;;;;;;3.70;1.90;;;12.70;99.90;;;;;;5023357;28;20493;-83
2023/03/18 01:11:04;;;;;;;3.67;2.10;;;12.70;99.90;;;;;;5022534;28;20452;-82
2023/03/18 01:13:31;;;;;;;3.63;1.97;;;12.60;1.00;;;;;;5022749;28;20465;-83
2023/03/18 01:15:58;;;;;;;4.83;2.50;;;12.60;1.00;;;;;;5010532;28;20456;-82
2023/03/18 01:18:24;;;;;;;5.60;2.33;;;12.60;1.00;;;;;;5022277;28;20538;-83
2023/03/18 01:20:51;;;;;;;5.03;2.50;;;12.50;99.90;;;;;;5021478;28;20958;-82
2023/03/18 01:23:18;;;;;;;3.73;1.93;;;12.40;99.90;;;;;;5023771;28;20484;-82
2023/03/18 01:25:47;;;;;;;3.60;1.80;;;12.30;1.00;;;;;;5022828;28;20481;-82
2023/03/18 01:28:16;;;;;;;5.30;2.10;;;12.20;1.00;;;;;;5026649;28;20519;-84
2023/03/18 01:30:43;;;;;;;10.57;2.63;;;12.10;99.90;;;;;;5019516;28;20995;-83
2023/03/18 01:33:10;;;;;;;8.30;2.80;;;12.10;99.90;;;;;;5008496;28;20453;-81
2023/03/18 01:35:38;;;;;;;3.87;1.93;;;12.10;99.90;;;;;;5025284;28;20461;-82
2023/03/18 01:38:05;;;;;;;5.20;2.07;;;12.20;99.90;;;;;;5027033;28;20526;-82
2023/03/18 01:40:33;;;;;;;3.27;2.17;;;12.30;68.10;;;;;;5027121;28;20495;-83
2023/03/18 01:43:15;;;;;;;5.80;2.10;;;12.30;99.90;;;;;;5027947;28;20453;-82
2023/03/18 01:45:45;;;;;;;3.77;2.43;;;12.40;99.90;;;;;;5025270;28;20485;-84
2023/03/18 01:48:16;;;;;;;3.63;1.97;;;12.50;99.90;;;;;;5026870;28;20480;-82
2023/03/18 01:50:44;;;;;;;4.27;2.13;;;12.50;99.90;;;;;;5006896;28;20483;-82
2023/03/18 01:53:14;;;;;;;4.57;2.40;;;12.50;99.90;;;;;;5008462;28;20450;-81
2023/03/18 01:55:41;;;;;;;4.67;2.50;;;12.40;3.30;;;;;;5027218;28;20454;-82
2023/03/18 01:58:13;;;;;;;6.90;2.47;;;12.40;1.00;;;;;;5029367;28;20500;-83
2023/03/18 02:00:45;;;;;;;5.97;2.37;;;12.40;99.90;;;;;;5028272;28;20446;-83
2023/03/18 02:03:13;;;;;;;4.73;2.23;;;12.50;1.00;;;;;;5029034;28;20444;-84
2023/03/18 02:05:43;;;;;;;3.40;2.23;;;12.60;1.00;;;;;;5029503;28;20450;-83
2023/03/18 02:08:10;;;;;;;4.73;2.37;;;12.60;1.00;;;;;;5027570;28;20535;-83
2023/03/18 02:10:38;;;;;;;4.33;2.57;;;12.60;1.00;;;;;;5033235;28;20513;-87
2023/03/18 02:13:07;;;;;;;4.70;2.20;;;12.70;1.00;;;;;;5036315;28;20886;-84
2023/03/18 02:15:38;;;;;;;7.07;2.20;;;12.70;1.00;;;;;;5036524;28;21027;-82
2023/03/18 02:18:09;;;;;;;5.30;2.17;;;12.70;99.90;;;;;;5021781;28;20494;-84
2023/03/18 02:20:45;;;;;;;4.80;2.40;;;12.80;1.00;;;;;;5019724;28;20788;-82
2023/03/18 02:23:19;;;;;;;5.43;2.23;;;12.80;99.90;;;;;;5019038;28;20456;-82
2023/03/18 02:25:53;;;;;;;6.50;2.90;;;12.90;99.90;;;;;;5020503;28;20466;-83
2023/03/18 02:28:24;;;;;;;5.73;2.83;;;12.90;82.90;;;;;;5019457;28;20556;-83
2023/03/18 02:30:54;;;;;;;9.97;2.97;;;13.00;99.90;;;;;;5019476;28;20955;-83
2023/03/18 02:33:24;;;;;;;4.13;1.77;;;12.90;1.00;;;;;;5019866;28;20455;-84
2023/03/18 02:35:56;;;;;;;6.03;1.63;;;12.90;1.00;;;;;;5019070;28;20451;-84
2023/03/18 02:38:23;;;;;;;6.07;3.00;;;12.90;1.00;;;;;;5018119;28;20981;-83
2023/03/18 02:40:50;;;;;;;4.20;2.23;;;12.90;99.90;;;;;;5018550;28;20540;-84
2023/03/18 02:43:22;;;;;;;4.90;2.37;;;12.90;1.00;;;;;;5019350;28;20525;-83
2023/03/18 02:46:01;;;;;;;3.43;2.20;;;12.80;1.00;;;;;;5023514;28;20457;-82
2023/03/18 02:48:32;;;;;;;4.07;2.10;;;12.60;99.90;;;;;;5024614;28;20485;-82
2023/03/18 02:50:59;;;;;;;3.60;2.10;;;12.50;99.90;;;;;;5024492;28;20448;-82
2023/03/18 02:53:26;;;;;;;3.70;1.63;;;12.40;99.90;;;;;;5024686;28;20478;-82
2023/03/18 02:55:53;;;;;;;5.07;2.03;;;12.30;1.00;;;;;;5024783;28;20479;-82
2023/03/18 02:58:21;;;;;;;5.13;1.80;;;12.20;1.00;;;;;;5020719;28;20481;-81
2023/03/18 03:00:48;;;;;;;6.00;2.60;;;12.00;1.00;;;;;;5014561;28;20539;-81
2023/03/18 03:03:15;;;;;;;5.87;1.83;;;12.00;1.00;;;;;;5015169;28;20461;-81
2023/03/18 03:05:42;;;;;;;4.03;2.23;;;11.80;54.80;;;;;;5014997;28;20542;-81
2023/03/18 03:08:09;;;;;;;5.83;2.93;;;11.70;99.90;;;;;;5015749;28;20879;-83
2023/03/18 03:10:36;;;;;;;4.83;2.27;;;11.60;99.90;;;;;;5015976;28;20483;-81
2023/03/18 03:13:05;;;;;;;3.43;2.33;;;11.40;99.90;;;;;;5015329;28;20457;-81
2023/03/18 03:15:34;;;;;;;3.13;1.60;;;11.30;99.90;;;;;;5016139;28;20475;-81
2023/03/18 03:18:00;;;;;;;6.57;2.23;;;11.20;99.90;;;;;;5015600;28;20490;-81
2023/03/18 03:20:28;;;;;;;8.47;2.33;;;11.10;99.90;;;;;;5017191;28;20454;-82
2023/03/18 03:22:55;;;;;;;5.77;2.10;;;11.00;99.90;;;;;;5017392;28;20458;-81
2023/03/18 03:25:22;;;;;;;4.60;2.50;;;10.90;99.90;;;;;;5019163;28;20451;-81
2023/03/18 03:27:49;;;;;;;3.93;1.60;;;10.90;99.90;;;;;;5018654;28;20501;-81
2023/03/18 03:30:17;;;;;;;5.43;2.30;;;10.80;99.90;;;;;;5019762;28;20487;-81
2023/03/18 03:32:46;;;;;;;4.20;2.40;;;10.90;1.00;;;;;;5020376;28;20465;-82
2023/03/18 03:35:14;;;;;;;3.70;1.97;;;11.00;1.00;;;;;;5019066;28;20458;-82
2023/03/18 03:37:42;;;;;;;6.03;1.63;;;11.00;99.90;;;;;;5018810;28;20484;-82
2023/03/18 03:40:10;;;;;;;4.00;3.53;;;11.00;99.90;;;;;;5019829;28;20460;-82
2023/03/18 03:42:37;;;;;;;3.97;1.90;;;11.00;99.90;;;;;;5015643;28;20459;-82
2023/03/18 03:45:06;;;;;;;3.07;1.83;;;10.90;99.90;;;;;;5016422;28;20458;-81
2023/03/18 03:47:33;;;;;;;5.83;2.47;;;10.80;99.90;;;;;;5016363;28;20474;-82
2023/03/18 03:50:01;;;;;;;5.87;2.07;;;10.70;1.00;;;;;;5015576;28;21007;-81
2023/03/18 03:52:28;;;;;;;10.43;2.70;;;10.60;1.00;;;;;;5015646;28;20453;-83
2023/03/18 03:54:55;;;;;;;6.30;2.10;;;10.60;1.00;;;;;;5016517;28;20460;-82
2023/03/18 03:57:22;;;;;;;6.07;2.37;;;10.50;1.00;;;;;;5016767;28;20859;-81
2023/03/18 03:59:49;;;;;;;4.27;2.53;;;10.40;1.00;;;;;;5026356;28;20485;-85
2023/03/18 04:02:16;;;;;;;4.17;1.93;;;10.30;1.00;;;;;;5026065;28;20472;-83
2023/03/18 04:04:44;;;;;;;4.43;2.00;;;10.20;1.00;;;;;;5025781;28;20899;-84
2023/03/18 04:07:13;;;;;;;4.00;2.40;;;10.10;1.00;;;;;;5026184;28;20478;-84
2023/03/18 04:09:40;;;;;;;4.73;2.00;;;10.10;1.00;;;;;;5026244;28;20488;-86
2023/03/18 04:12:08;;;;;;;5.93;2.60;;;10.00;1.00;;;;;;5024810;28;20461;-85
2023/03/18 04:14:34;;;;;;;5.93;2.20;;;9.90;1.00;;;;;;5024298;28;20548;-84
2023/03/18 04:17:01;;;;;;;9.73;2.70;;;9.80;1.00;;;;;;5023137;28;20518;-85
2023/03/18 04:19:29;;;;;;;3.40;2.67;;;9.70;1.00;;;;;;5022347;28;20485;-84
2023/03/18 04:21:56;;;;;;;3.30;2.10;;;9.70;13.50;;;;;;5023417;28;20462;-82
2023/03/18 04:24:25;;;;;;;5.73;2.60;;;9.70;43.80;;;;;;5024020;28;20544;-82
2023/03/18 04:26:51;;;;;;;6.13;2.77;;;9.70;92.70;;;;;;5023531;28;20461;-82
2023/03/18 04:29:18;;;;;;;6.20;4.10;;;9.80;99.90;;;;;;5022893;28;20495;-83
2023/03/18 04:31:45;;;;;;;3.40;2.30;;;9.90;99.90;;;;;;5023029;28;20464;-82
2023/03/18 04:34:12;;;;;;;3.73;2.47;;;10.10;99.90;;;;;;5022437;28;20525;-81
2023/03/18 04:36:39;;;;;;;4.20;2.10;;;10.40;99.90;;;;;;5023309;28;20524;-84
2023/03/18 04:39:06;;;;;;;6.53;3.20;;;10.50;99.90;;;;;;5022760;28;20565;-82
2023/03/18 04:41:36;;;;;;;7.73;2.60;;;10.60;99.90;;;;;;5022498;28;20451;-85
2023/03/18 04:44:03;;;;;;;6.30;2.80;;;10.70;99.90;;;;;;5022394;28;20451;-83
2023/03/18 04:46:31;;;;;;;3.50;2.30;;;10.70;99.90;;;;;;5022537;28;20459;-82
2023/03/18 04:48:58;;;;;;;5.90;3.17;;;10.80;99.90;;;;;;5022915;28;21075;-82
2023/03/18 04:51:26;;;;;;;7.97;3.60;;;10.90;99.90;;;;;;5021271;28;21146;-83
2023/03/18 04:53:53;;;;;;;6.53;3.50;;;11.00;99.90;;;;;;5020761;28;20826;-82
2023/03/18 04:56:20;;;;;;;10.13;4.10;;;11.20;99.90;;;;;;5020671;28;20450;-82
2023/03/18 04:58:48;;;;;;;5.53;2.80;;;11.40;99.90;;;;;;5019569;28;20560;-82
2023/03/18 05:01:15;;;;;;;6.37;3.83;;;11.50;99.90;;;;;;5020163;28;20523;-84
2023/03/18 05:03:42;;;;;;;5.70;3.77;;;11.60;99.90;;;;;;5005527;28;20459;-85
2023/03/18 05:06:16;;;;;;;8.03;3.90;;;11.70;99.90;;;;;;5005533;28;20451;-83
2023/03/18 05:08:43;;;;;;;52.63;43.30;;;11.80;99.90;;;;;;5024495;28;20983;-84
2023/03/18 05:11:10;;;;;;;37.03;33.23;;;11.90;84.10;;;;;;5023362;28;21107;-84
2023/03/18 05:13:37;;;;;;;32.33;27.20;;;11.90;73.00;;;;;;5024797;28;20519;-84
2023/03/18 05:16:07;;;;;;;35.00;31.50;;;12.00;49.00;;;;;;5024209;28;20461;-83
2023/03/18 05:18:34;;;;;;;10.47;6.33;;;12.00;27.30;;;;;;5024924;28;20479;-85
2023/03/18 05:21:01;;;;;;;15.93;11.00;;;12.10;15.90;;;;;;5024596;28;20483;-84
2023/03/18 05:23:28;;;;;;;11.57;8.70;;;12.10;9.50;;;;;;5025211;28;20567;-84
2023/03/18 05:25:55;;;;;;;12.50;7.77;;;12.20;2.20;;;;;;5024285;28;20515;-86
2023/03/18 05:28:22;;;;;;;16.00;7.93;;;12.20;1.00;;;;;;5024732;28;20548;-83
2023/03/18 05:30:49;;;;;;;10.90;6.90;;;12.20;1.00;;;;;;5024113;28;20498;-85
2023/03/18 05:33:17;;;;;;;9.20;6.27;;;12.20;1.00;;;;;;5024902;28;20487;-84
2023/03/18 05:35:44;;;;;;;7.37;5.10;;;12.20;1.00;;;;;;5024633;28;20872;-85
2023/03/18 05:38:10;;;;;;;12.17;6.20;;;12.20;1.00;;;;;;5024881;28;20478;-82
2023/03/18 05:40:38;;;;;;;6.57;4.03;;;12.20;1.00;;;;;;5025214;28;20524;-84
2023/03/18 05:43:05;;;;;;;7.60;3.50;;;12.10;1.00;;;;;;5026638;28;20469;-85
2023/03/18 05:45:32;;;;;;;6.77;3.73;;;12.20;1.00;;;;;;5026689;28;20459;-84
2023/03/18 05:47:59;;;;;;;5.03;3.33;;;12.30;1.00;;;;;;5030390;28;20886;-84
2023/03/18 05:50:32;;;;;;;7.80;4.30;;;12.20;1.00;;;;;;5026970;28;20498;-85
2023/03/18 05:53:00;;;;;;;5.30;3.20;;;12.30;1.00;;;;;;5032962;28;20528;-85
2023/03/18 05:55:27;;;;;;;8.23;3.37;;;12.30;1.00;;;;;;5035471;28;20512;-85
2023/03/18 05:57:54;;;;;;;8.00;3.30;;;12.30;1.00;;;;;;5034891;28;20476;-84
2023/03/18 06:00:21;;;;;;;4.60;3.20;;;12.30;1.00;;;;;;5028952;28;20463;-83
2023/03/18 06:02:48;;;;;;;5.13;3.10;;;12.40;1.00;;;;;;5024297;28;20465;-84
2023/03/18 06:05:15;;;;;;;5.40;3.20;;;12.30;1.00;;;;;;5023485;28;20528;-85
2023/03/18 06:07:44;;;;;;;5.90;3.43;;;12.40;1.00;;;;;;5024296;28;20480;-84
2023/03/18 06:10:11;;;;;;;6.90;3.70;;;12.40;1.00;;;;;;5023481;28;20485;-83
2023/03/18 06:12:40;;;;;;;4.60;3.83;;;12.40;1.00;;;;;;5023626;28;20472;-86
2023/03/18 06:15:08;;;;;;;7.30;3.53;;;12.30;1.00;;;;;;5021453;28;20460;-85
2023/03/18 06:17:35;;;;;;;3.63;3.17;;;12.30;1.00;;;;;;5019270;28;20472;-85
2023/03/18 06:20:03;;;;;;;8.60;3.60;;;12.40;1.00;;;;;;5022488;28;20475;-83
2023/03/18 06:22:31;;;;;;;5.63;3.60;;;12.40;1.00;;;;;;5021734;28;20487;-84
2023/03/18 06:25:00;;;;;;;7.43;3.80;;;12.50;1.00;;;;;;5021457;28;20460;-83
2023/03/18 06:27:27;;;;;;;7.10;3.30;;;12.50;1.00;;;;;;5021579;28;20459;-84
2023/03/18 06:29:53;;;;;;;6.73;4.97;;;12.40;1.00;;;;;;5016013;28;20480;-86
2023/03/18 06:32:20;;;;;;;5.33;4.00;;;12.40;1.00;;;;;;5021089;28;20456;-84
2023/03/18 06:34:47;;;;;;;5.40;3.57;;;12.50;1.00;;;;;;5023901;28;20539;-82
2023/03/18 06:37:14;;;;;;;9.40;4.37;;;12.40;1.00;;;;;;5021040;28;20459;-84
2023/03/18 06:39:41;;;;;;;6.63;4.50;;;12.50;1.00;;;;;;5021478;28;20454;-82
2023/03/18 06:42:10;;;;;;;7.73;4.23;;;12.60;1.00;;;;;;5018741;28;20451;-83
2023/03/18 06:44:37;;;;;;;4.90;3.40;;;12.50;1.00;;;;;;5019821;28;20448;-82
2023/03/18 06:47:03;;;;;;;5.13;3.80;;;12.50;1.00;;;;;;5019506;28;21005;-81
2023/03/18 06:49:30;;;;;;;7.40;3.70;;;12.60;1.00;;;;;;5018607;28;20499;-81
2023/03/18 06:51:57;;;;;;;6.63;4.50;;;12.50;1.00;;;;;;5015621;28;20521;-81
2023/03/18 06:54:24;;;;;;;6.90;4.23;;;12.50;1.00;;;;;;5016721;28;20455;-81
2023/03/18 06:56:51;;;;;;;7.93;4.00;;;12.50;1.00;;;;;;5019229;28;20457;-84
2023/03/18 06:59:22;;;;;;;6.10;3.93;;;12.50;1.00;;;;;;5023362;28;20768;-82
2023/03/18 07:01:49;;;;;;;7.90;4.20;;;12.60;1.00;;;;;;5017355;28;20463;-82
2023/03/18 07:04:16;;;;;;;14.53;4.17;;;12.60;1.00;;;;;;5015742;28;20460;-78
2023/03/18 07:06:42;;;;;;;4.37;3.73;;;12.60;1.00;;;;;;5015157;28;20477;-79
2023/03/18 07:09:10;;;;;;;6.57;3.53;;;12.70;1.00;;;;;;5015446;28;20875;-82
2023/03/18 07:11:36;;;;;;;4.70;4.30;;;12.70;1.00;;;;;;5014881;28;20587;-80
2023/03/18 07:14:04;;;;;;;7.57;3.50;;;12.80;99.90;;;;;;5017102;28;20831;-83
2023/03/18 07:16:32;;;;;;;7.80;4.37;;;12.90;99.90;;;;;;5016324;28;20503;-81
2023/03/18 07:19:00;;;;;;;5.73;3.70;;;13.00;99.90;;;;;;5015952;28;20471;-84
2023/03/18 07:21:28;;;;;;;5.20;3.70;;;13.20;99.90;;;;;;5016259;28;20461;-82
2023/03/18 07:23:55;;;;;;;5.53;3.33;;;13.40;99.90;;;;;;5009991;28;20509;-82
2023/03/18 07:26:22;;;;;;;4.53;2.57;;;13.50;1.00;;;;;;4996545;28;20455;-84
2023/03/18 07:28:48;;;;;;;5.27;3.20;;;13.60;1.00;;;;;;4996368;28;20499;-82
2023/03/18 07:31:17;;;;;;;5.00;3.60;;;13.60;1.00;;;;;;4996005;28;20492;-89
2023/03/18 07:33:45;;;;;;;11.30;3.90;;;13.70;99.90;;;;;;5026047;28;20457;-88
2023/03/18 07:36:13;;;;;;;5.23;3.87;;;13.60;99.90;;;;;;5018316;28;20529;-85
2023/03/18 07:38:39;;;;;;;7.33;3.73;;;13.50;99.90;;;;;;5020033;28;20471;-83
2023/03/18 07:41:06;;;;;;;3.80;3.27;;;13.70;99.90;;;;;;5019189;28;20914;-85
2023/03/18 07:43:34;;;;;;;7.77;3.90;;;13.80;46.40;;;;;;5020869;28;20545;-81
2023/03/18 07:46:02;;;;;;;5.80;4.00;;;13.80;1.00;;;;;;5021219;28;20468;-80
2023/03/18 07:48:30;;;;;;;7.57;3.63;;;13.90;1.00;;;;;;5019237;28;20494;-82
2023/03/18 07:50:59;;;;;;;6.50;3.50;;;14.00;99.90;;;;;;5011961;28;20905;-82
2023/03/18 07:53:26;;;;;;;6.73;4.27;;;14.10;1.00;;;;;;5018826;28;20495;-81
2023/03/18 07:55:53;;;;;;;4.80;3.70;;;14.00;99.90;;;;;;5019998;28;20460;-83
2023/03/18 07:58:20;;;;;;;5.80;4.30;;;13.90;1.00;;;;;;5019183;28;20558;-81
2023/03/18 08:00:48;;;;;;;6.40;3.20;;;13.80;99.90;;;;;;5018211;28;20520;-80
2023/03/18 08:03:15;;;;;;;7.10;3.13;;;13.90;99.90;;;;;;5017952;28;20972;-81
2023/03/18 08:05:42;;;;;;;4.50;3.40;;;13.90;99.90;;;;;;5001243;28;20532;-82
2023/03/18 08:08:11;;;;;;;7.10;3.83;;;14.20;99.90;;;;;;5015907;28;20511;-81
2023/03/18 08:10:38;;;;;;;5.43;4.17;;;14.50;1.00;;;;;;5017647;28;20491;-82
2023/03/18 08:13:05;;;;;;;4.10;2.87;;;15.00;99.90;;;;;;5017270;28;20542;-82
2023/03/18 08:15:31;;;;;;;4.07;2.90;;;15.30;99.90;;;;;;4999285;28;20456;-81
2023/03/18 08:17:59;;;;;;;3.73;2.50;;;15.70;1.00;;;;;;5008082;28;20474;-80
2023/03/18 08:20:26;;;;;;;5.90;3.43;;;16.00;99.90;;;;;;5012783;28;20523;-81
2023/03/18 08:22:54;;;;;;;4.57;3.97;;;16.20;1.60;;;;;;5003497;28;20460;-80
2023/03/18 08:25:23;;;;;;;3.60;2.83;;;16.70;1.00;;;;;;5014014;28;20460;-80
2023/03/18 08:27:51;;;;;;;4.83;2.67;;;16.90;99.90;;;;;;5014716;28;20470;-82
2023/03/18 08:30:18;;;;;;;4.63;3.03;;;17.40;99.90;;;;;;5015457;28;20453;-82
2023/03/18 08:32:45;;;;;;;4.97;2.70;;;17.20;99.90;;;;;;5015187;28;20445;-80
2023/03/18 08:35:12;;;;;;;6.93;3.00;;;17.10;99.90;;;;;;5014700;28;20522;-81
2023/03/18 08:37:39;;;;;;;3.50;2.50;;;16.90;65.50;;;;;;5013720;28;20934;-81
2023/03/18 08:40:08;;;;;;;4.67;2.73;;;16.90;1.00;;;;;;5014512;28;20553;-81
2023/03/18 08:42:36;;;;;;;7.17;3.00;;;16.70;1.00;;;;;;5012654;28;20548;-81
2023/03/18 08:45:04;;;;;;;6.53;3.33;;;16.90;1.00;;;;;;5013292;28;20454;-83
2023/03/18 08:47:31;;;;;;;4.87;2.20;;;17.30;1.00;;;;;;4976380;28;1057925;-81
2023/03/18 08:49:58;;;;;;;3.60;2.00;;;17.10;1.00;;;;;;5015984;28;20455;-80
2023/03/18 08:52:25;;;;;;;4.73;2.20;;;16.80;1.00;;;;;;5011870;28;20489;-83
2023/03/18 08:54:52;;;;;;;5.50;2.60;;;16.80;1.00;;;;;;5013646;28;20460;-82
2023/03/18 08:57:19;;;;;;;4.70;2.60;;;16.80;1.00;;;;;;5005626;28;20559;-82
2023/03/18 08:59:49;;;;;;;4.33;2.20;;;16.70;1.00;;;;;;5014549;28;20467;-81
2023/03/18 09:02:17;;;;;;;5.60;2.70;;;16.60;1.00;;;;;;5009509;28;20450;-82
2023/03/18 09:04:44;;;;;;;4.20;2.50;;;16.50;1.00;;;;;;5013726;28;20456;-82
2023/03/18 09:07:13;;;;;;;4.30;2.30;;;16.70;1.00;;;;;;5009708;28;20456;-81
2023/03/18 09:09:40;;;;;;;3.33;2.10;;;16.50;1.00;;;;;;5013783;28;20454;-83
2023/03/18 09:12:08;;;;;;;4.57;2.10;;;16.50;1.00;;;;;;5000902;28;20489;-82
2023/03/18 09:14:35;;;;;;;2.63;1.90;;;16.80;1.00;;;;;;4993398;28;20461;-81
2023/03/18 09:17:03;;;;;;;4.50;2.23;;;16.90;1.00;;;;;;5004631;28;20545;-82
2023/03/18 09:19:30;;;;;;;4.70;2.37;;;17.90;1.00;;;;;;5013807;28;20495;-83
2023/03/18 09:21:58;;;;;;;5.93;2.10;;;18.00;1.00;;;;;;5021783;28;20813;-83
2023/03/18 09:24:24;;;;;;;2.77;2.00;;;18.50;1.00;;;;;;5021793;28;20469;-83
2023/03/18 09:26:51;;;;;;;3.20;1.47;;;19.60;1.00;;;;;;5021344;28;20475;-83
2023/03/18 09:29:18;;;;;;;3.80;2.27;;;21.00;1.00;;;;;;5020900;28;21049;-83
2023/03/18 09:31:45;;;;;;;4.50;2.30;;;21.60;1.00;;;;;;5019548;28;20477;-85
2023/03/18 09:34:14;;;;;;;3.00;1.70;;;20.60;1.00;;;;;;5019842;28;20458;-84
2023/03/18 09:36:49;;;;;;;4.03;2.27;;;20.70;1.00;;;;;;5020580;28;20453;-85
2023/03/18 09:39:17;;;;;;;3.50;1.77;;;21.30;1.00;;;;;;5024828;28;20491;-84
2023/03/18 09:41:53;;;;;;;5.77;2.20;;;20.60;1.00;;;;;;5024419;28;20886;-84
2023/03/18 09:44:25;;;;;;;3.17;2.20;;;19.90;1.00;;;;;;5022509;28;20445;-83
2023/03/18 09:47:11;;;;;;;2.87;1.53;;;19.20;99.90;;;;;;5016120;28;20492;-84
2023/03/18 09:49:54;;;;;;;3.50;1.67;;;18.90;1.00;;;;;;5016011;28;20563;-83
2023/03/18 09:52:23;;;;;;;6.33;2.00;;;19.80;1.00;;;;;;5019163;28;20480;-82
2023/03/18 09:54:57;;;;;;;3.50;1.87;;;21.40;1.00;;;;;;5017664;28;20453;-83
2023/03/18 09:57:26;;;;;;;4.43;1.90;;;22.70;1.00;;;;;;5017506;28;20441;-83
2023/03/18 09:59:58;;;;;;;6.00;2.07;;;23.60;99.90;;;;;;5018456;28;20458;-83
2023/03/18 10:02:32;;;;;;;3.77;1.77;;;24.20;99.90;;;;;;5018249;28;20444;-83
2023/03/18 10:05:04;;;;;;;3.83;2.70;;;26.30;99.90;;;;;;5016408;28;20448;-82
2023/03/18 10:07:37;;;;;;;4.37;1.97;;;25.30;99.90;;;;;;5016789;28;20837;-83
2023/03/18 10:10:09;;;;;;;5.67;2.57;;;24.90;99.90;;;;;;5017694;28;20454;-83
2023/03/18 10:12:38;;;;;;;4.67;2.10;;;24.60;99.90;;;;;;5014280;28;20500;-82
2023/03/18 10:15:15;;;;;;;3.33;1.70;;;23.30;99.90;;;;;;5016623;28;20512;-83
2023/03/18 10:17:46;;;;;;;3.13;1.87;;;24.00;99.90;;;;;;5016509;28;20484;-84
2023/03/18 10:20:18;;;;;;;2.70;1.50;;;24.10;99.90;;;;;;5016181;28;20452;-83
2023/03/18 10:22:56;;;;;;;4.33;1.93;;;24.50;99.90;;;;;;5015084;28;20473;-83
2023/03/18 10:25:28;;;;;;;2.63;1.80;;;25.20;99.90;;;;;;5015246;28;20536;-83
2023/03/18 10:28:18;;;;;;;2.00;1.50;;;26.10;99.90;;;;;;5015994;28;20472;-83
2023/03/18 10:30:56;;;;;;;3.33;1.70;;;27.60;99.90;;;;;;5014876;28;20481;-83
2023/03/18 10:33:35;;;;;;;6.60;3.30;;;27.20;99.90;;;;;;5011705;28;20449;-82
2023/03/18 10:36:11;;;;;;;2.93;2.00;;;27.10;99.90;;;;;;5015855;28;20471;-83
2023/03/18 10:38:41;;;;;;;2.63;1.60;;;27.40;99.90;;;;;;5015804;28;20477;-84
2023/03/18 10:41:16;;;;;;;2.30;1.50;;;27.40;99.90;;;;;;5014283;28;20446;-84
2023/03/18 10:43:46;;;;;;;3.60;1.70;;;27.50;99.90;;;;;;5015778;28;20520;-83
2023/03/18 10:46:16;;;;;;;3.27;1.80;;;28.50;99.90;;;;;;5016103;28;20835;-83
2023/03/18 10:48:56;;;;;;;3.20;1.60;;;29.40;99.90;;;;;;5015743;28;20496;-84
2023/03/18 10:51:31;;;;;;;2.63;1.73;;;30.00;99.90;;;;;;5014061;28;20572;-85
2023/03/18 10:54:03;;;;;;;3.47;2.13;;;31.50;99.90;;;;;;5015843;28;20441;-84
2023/03/18 10:56:30;;;;;;;3.03;1.70;;;30.80;99.90;;;;;;5016080;28;20458;-84
2023/03/18 10:58:57;;;;;;;2.93;1.80;;;29.40;99.90;;;;;;5014970;28;20474;-83
2023/03/18 11:01:28;;;;;;;2.73;1.70;;;27.60;99.90;;;;;;5014014;28;20445;-83
2023/03/18 11:04:02;;;;;;;2.40;1.53;;;25.50;99.90;;;;;;5015520;28;20872;-84
2023/03/18 11:06:37;;;;;;;2.73;1.60;;;26.60;99.90;;;;;;5018675;28;20458;-84
2023/03/18 11:09:07;;;;;;;2.53;1.40;;;27.80;99.90;;;;;;5021126;28;20500;-84
2023/03/18 11:11:35;;;;;;;2.37;1.57;;;27.90;99.90;;;;;;5016792;28;20490;-84
2023/03/18 11:14:05;;;;;;;4.80;1.40;;;29.60;99.90;;;;;;5017103;28;20453;-84
2023/03/18 11:16:38;;;;;;;4.73;1.60;;;29.40;99.90;;;;;;5017067;28;20462;-85
2023/03/18 11:19:27;;;;;;;2.83;1.30;;;31.20;99.90;;;;;;5016341;28;20461;-84
2023/03/18 11:22:16;;;;;;;2.60;1.47;;;32.20;99.90;;;;;;5014548;28;20458;-85
2023/03/18 11:24:43;;;;;;;2.83;1.20;;;32.90;99.90;;;;;;5012498;28;20472;-84
2023/03/18 11:27:26;;;;;;;2.13;1.23;;;32.60;99.90;;;;;;5016200;28;20454;-85
2023/03/18 11:29:57;;;;;;;3.03;1.40;;;32.10;99.90;;;;;;5015806;28;20461;-84
2023/03/18 11:32:27;;;;;;;2.63;1.50;;;33.40;99.90;;;;;;5015226;28;20489;-85
2023/03/18 11:34:59;;;;;;;3.57;1.30;;;34.20;99.90;;;;;;5013998;28;20508;-84
2023/03/18 11:37:36;;;;;;;3.30;1.70;;;34.40;99.90;;;;;;5009521;28;20504;-85
2023/03/18 11:40:18;;;;;;;2.27;1.13;;;34.50;99.90;;;;;;5012788;28;20468;-86
2023/03/18 11:42:46;;;;;;;2.63;1.40;;;35.50;99.90;;;;;;5013088;28;20457;-86
2023/03/18 11:45:33;;;;;;;2.40;1.40;;;35.70;99.90;;;;;;5013083;28;20456;-87
2023/03/18 11:48:02;;;;;;;2.47;1.17;;;36.40;99.90;;;;;;5012286;28;20486;-88
2023/03/18 11:50:39;;;;;;;2.60;1.40;;;37.00;99.90;;;;;;4997548;28;20492;-87
2023/03/18 11:53:13;;;;;;;2.60;1.27;;;34.80;99.90;;;;;;5010870;28;20487;-86
2023/03/18 11:55:45;;;;;;;3.83;1.50;;;34.70;99.90;;;;;;5012165;28;20454;-86
2023/03/18 11:58:47;;;;;;;3.03;2.00;;;35.70;99.90;;;;;;5011729;28;20496;-86
2023/03/18 12:01:18;;;;;;;3.03;1.43;;;35.50;99.90;;;;;;4979926;28;20453;-86
2023/03/18 12:04:18;;;;;;;2.30;1.37;;;34.50;99.90;;;;;;5012577;28;20986;-86
2023/03/18 12:06:57;;;;;;;2.47;1.20;;;32.20;99.90;;;;;;4955279;28;20547;-86
2023/03/18 12:09:35;;;;;;;4.33;1.57;;;31.20;99.90;;;;;;5007390;28;20518;-86
2023/03/18 12:12:18;;;;;;;2.60;1.60;;;29.40;99.90;;;;;;5011542;28;20458;-86
2023/03/18 12:14:53;;;;;;;2.63;1.50;;;30.80;99.90;;;;;;5013757;28;20466;-86
2023/03/18 12:17:30;;;;;;;2.77;1.30;;;30.10;99.90;;;;;;5015668;28;20449;-85
2023/03/18 12:20:27;;;;;;;2.70;1.37;;;28.70;99.90;;;;;;5014511;28;20533;-85
2023/03/18 12:23:03;;;;;;;2.13;1.20;;;26.10;99.90;;;;;;4994168;28;20492;-85
2023/03/18 12:25:54;;;;;;;2.40;1.47;;;25.30;99.90;;;;;;5014940;28;20862;-85
2023/03/18 12:28:32;;;;;;;2.70;1.23;;;23.90;99.90;;;;;;5014695;28;20482;-84
2023/03/18 12:31:28;;;;;;;5.13;2.80;;;23.70;99.90;;;;;;5014218;28;20452;-85
2023/03/18 12:33:57;;;;;;;2.13;1.40;;;22.80;99.90;;;;;;5014245;28;20460;-84
2023/03/18 12:36:38;;;;;;;3.30;1.40;;;22.90;99.90;;;;;;5015521;28;20454;-85
2023/03/18 12:39:35;;;;;;;2.20;1.10;;;23.40;99.90;;;;;;5015772;28;20536;-85
2023/03/18 12:42:09;;;;;;;2.10;1.07;;;26.60;99.90;;;;;;5013993;28;20496;-84
2023/03/18 12:45:02;;;;;;;2.33;1.20;;;30.50;99.90;;;;;;5014485;28;20445;-83
2023/03/18 12:47:34;;;;;;;2.00;0.93;;;31.30;99.90;;;;;;4995147;28;20457;-85
2023/03/18 12:50:04;;;;;;;2.00;1.00;;;30.10;99.90;;;;;;5016235;28;20454;-85
2023/03/18 12:52:37;;;;;;;3.17;1.20;;;27.60;99.90;;;;;;5025459;28;20549;-85
2023/03/18 12:55:11;;;;;;;3.73;1.30;;;26.20;99.90;;;;;;5013883;28;20453;-85
2023/03/18 12:57:44;;;;;;;2.67;1.53;;;24.40;99.90;;;;;;5002616;28;20510;-85
2023/03/18 13:00:19;;;;;;;3.20;1.30;;;23.90;99.90;;;;;;5014104;28;20465;-84
2023/03/18 13:02:53;;;;;;;2.30;1.30;;;23.90;99.90;;;;;;5012909;28;20519;-84
2023/03/18 13:05:25;;;;;;;3.00;1.63;;;23.70;99.90;;;;;;5014349;28;20437;-85